Thornwood, NY (10594)

5:29 AM EDT on September 22, 2014 (GMT -0400)
KNYHAWTH2 | Change Station
CLOSE
Current Station
Personal Weather Station
Location: Hawthorne, NY
Elevation: 298 ft
Nearby Weather Stations

Elev 298 ft 41.10 °N, 73.80 °W | Updated 7 seconds ago

Clear
Clear
61.9 °F
Feels Like 61.9 °F
N
6.9
Wind Variable Wind from WNW
Gusts 6.9 mph

Today
High -- | Low -- °F
--% Chance of Precip.
Yesterday
High -- | Low -- °F
Precip. -- in
6:42 AM 6:52 PM
Waning Crescent, 3% visible
Pressure 29.68 in
Visibility 10.0 miles
Clouds Clear
Dew Point 59 °F
Humidity 90%
Rainfall 0.01 in
Snow Depth Not available.
UV 0 out of 12
Pollen 1.00 out of 12
Ozone Good
PM2.5 Good
Flu Activity Not available.
METAR KHPN 220856Z 28006KT 10SM CLR 17/13 A2969 RMK AO2 SLP049 T01720133 53012

More Conditions Fewer Conditions

Pressure 29.68 in
Visibility 10.0 miles
Clouds Clear
Dew Point 59 °F
Humidity 90%
Rainfall 0.01 in
Snow Depth Not available.
UV 0 out of 12
Pollen 1.00 out of 12
Ozone Good
PM2.5 Good
Flu Activity Not available.
METAR KHPN 220856Z 28006KT 10SM CLR 17/13 A2969 RMK AO2 SLP049 T01720133 53012

More Conditions Fewer Conditions

10-Day Weather Forecast

Almanac

Astronomy

Sep. 22, 2014 Rise Set
Actual Time 6:42 AM EDT 6:52 PM EDT
Civil Twilight 6:15 AM EDT 7:19 PM EDT
Nautical Twilight 5:42 AM EDT 7:51 PM EDT
Astronomical Twilight 5:09 AM EDT 8:24 PM EDT
Moon 5:08 AM EDT 5:58 PM EDT
Length of Visible Light 13h 04m
Length of Day
12h 09m
Tomorrow will be 2m 43s shorter.
Waning Crescent, 3% of the Moon is Illuminated
Today
Waning Crescent
Sep 24
New
Oct 1
First Quarter
Oct 8
Full
Oct 15
Last Quarter

Today's Extremes

State Highs State Lows

Community

WunderPhotos

Upload Photos

1,755,402 photos uploaded!

Nearby

Air Quality

  Air Quality AQ Index Pollutant
Yesterday Good
PM2.5
Yesterday Good
OZONE
Current Good
PM2.5
Current Good
OZONE
Monday Good
OZONE
Monday Good
PM2.5

Snow Depth

Station Depth Elevation
No new snow has been reported.

Earthquake Activity

City Distance Mag. Time & Date
No recent earthquake activity has been reported nearby.
Minimum magnitude displayed is 2.5.

Coastal Water Temperatures

Place Temperature
Kings Point, NY 69.1 °F
Bridgeport, CT 69.1 °F

Nearby Weather Stations